sensor_id;sensor_type;location;lat;lon;timestamp;pressure;altitude;pressure_sealevel;temperature;humidity
60244;BME280;46106;51.468;5.814;2023-07-20T00:00:17;101062.50;;;17.54;100.00
60244;BME280;46106;51.468;5.814;2023-07-20T00:03:13;101071.06;;;17.43;100.00
60244;BME280;46106;51.468;5.814;2023-07-20T00:06:02;101067.94;;;17.64;100.00
60244;BME280;46106;51.468;5.814;2023-07-20T00:08:49;101066.22;;;17.63;100.00
60244;BME280;46106;51.468;5.814;2023-07-20T00:11:36;101066.16;;;17.55;100.00
60244;BME280;46106;51.468;5.814;2023-07-20T00:14:25;101062.53;;;17.36;100.00
60244;BME280;46106;51.468;5.814;2023-07-20T00:17:11;101062.59;;;17.44;100.00
60244;BME280;46106;51.468;5.814;2023-07-20T00:19:57;101064.03;;;17.49;100.00
60244;BME280;46106;51.468;5.814;2023-07-20T00:22:42;101069.25;;;17.52;100.00
60244;BME280;46106;51.468;5.814;2023-07-20T00:25:28;101064.13;;;17.65;100.00
60244;BME280;46106;51.468;5.814;2023-07-20T00:28:14;101068.53;;;17.50;100.00
60244;BME280;46106;51.468;5.814;2023-07-20T00:31:00;101062.16;;;17.31;100.00
60244;BME280;46106;51.468;5.814;2023-07-20T00:33:46;101057.28;;;17.25;100.00
60244;BME280;46106;51.468;5.814;2023-07-20T00:36:32;101047.84;;;17.18;100.00
60244;BME280;46106;51.468;5.814;2023-07-20T00:39:18;101045.03;;;17.09;100.00
60244;BME280;46106;51.468;5.814;2023-07-20T00:42:04;101050.41;;;17.11;100.00
60244;BME280;46106;51.468;5.814;2023-07-20T00:44:49;101056.88;;;17.02;100.00
60244;BME280;46106;51.468;5.814;2023-07-20T00:47:36;101046.31;;;16.97;100.00
60244;BME280;46106;51.468;5.814;2023-07-20T00:50:24;101057.69;;;16.94;100.00
60244;BME280;46106;51.468;5.814;2023-07-20T00:53:10;101050.94;;;16.97;100.00
60244;BME280;46106;51.468;5.814;2023-07-20T00:55:55;101058.09;;;16.99;100.00
60244;BME280;46106;51.468;5.814;2023-07-20T00:58:42;101056.44;;;16.79;100.00
60244;BME280;46106;51.468;5.814;2023-07-20T01:01:28;101052.91;;;16.68;100.00
60244;BME280;46106;51.468;5.814;2023-07-20T01:04:14;101052.81;;;16.60;100.00
60244;BME280;46106;51.468;5.814;2023-07-20T01:10:57;101055.38;;;16.44;100.00
60244;BME280;46106;51.468;5.814;2023-07-20T01:13:31;101057.13;;;16.45;100.00
60244;BME280;46106;51.468;5.814;2023-07-20T01:16:16;101063.94;;;16.23;100.00
60244;BME280;46106;51.468;5.814;2023-07-20T01:19:03;101069.91;;;16.18;100.00
60244;BME280;46106;51.468;5.814;2023-07-20T01:25:11;101067.09;;;16.28;100.00
60244;BME280;46106;51.468;5.814;2023-07-20T01:31:28;101071.88;;;16.35;100.00
60244;BME280;46106;51.468;5.814;2023-07-20T01:34:17;101070.41;;;16.13;100.00
60244;BME280;46106;51.468;5.814;2023-07-20T01:37:05;101066.84;;;15.93;100.00
60244;BME280;46106;51.468;5.814;2023-07-20T01:39:52;101057.72;;;15.83;100.00
60244;BME280;46106;51.468;5.814;2023-07-20T01:42:45;101061.47;;;15.92;100.00
60244;BME280;46106;51.468;5.814;2023-07-20T01:45:31;101064.75;;;16.05;100.00
60244;BME280;46106;51.468;5.814;2023-07-20T01:48:17;101065.06;;;16.02;100.00
60244;BME280;46106;51.468;5.814;2023-07-20T01:51:03;101064.53;;;16.16;100.00
60244;BME280;46106;51.468;5.814;2023-07-20T01:53:48;101071.81;;;16.17;100.00
60244;BME280;46106;51.468;5.814;2023-07-20T01:56:34;101068.41;;;16.06;100.00
60244;BME280;46106;51.468;5.814;2023-07-20T01:59:20;101070.94;;;15.89;100.00
60244;BME280;46106;51.468;5.814;2023-07-20T02:02:05;101074.13;;;16.22;100.00
60244;BME280;46106;51.468;5.814;2023-07-20T02:04:51;101069.00;;;16.27;100.00
60244;BME280;46106;51.468;5.814;2023-07-20T02:07:37;101071.66;;;16.19;100.00
60244;BME280;46106;51.468;5.814;2023-07-20T02:10:23;101069.09;;;16.08;100.00
60244;BME280;46106;51.468;5.814;2023-07-20T02:13:08;101077.75;;;16.23;100.00
60244;BME280;46106;51.468;5.814;2023-07-20T02:15:54;101079.28;;;16.07;100.00
60244;BME280;46106;51.468;5.814;2023-07-20T02:18:40;101083.84;;;16.26;100.00
60244;BME280;46106;51.468;5.814;2023-07-20T02:21:25;101074.34;;;16.39;100.00
60244;BME280;46106;51.468;5.814;2023-07-20T02:24:12;101083.84;;;16.54;100.00
60244;BME280;46106;51.468;5.814;2023-07-20T02:26:58;101086.28;;;16.57;100.00
60244;BME280;46106;51.468;5.814;2023-07-20T02:29:44;101081.53;;;16.49;100.00
60244;BME280;46106;51.468;5.814;2023-07-20T02:32:30;101083.94;;;16.34;100.00
60244;BME280;46106;51.468;5.814;2023-07-20T02:35:17;101086.97;;;16.41;100.00
60244;BME280;46106;51.468;5.814;2023-07-20T02:38:02;101097.06;;;16.32;100.00
60244;BME280;46106;51.468;5.814;2023-07-20T02:40:48;101099.50;;;16.35;100.00
60244;BME280;46106;51.468;5.814;2023-07-20T02:43:35;101095.41;;;16.40;100.00
60244;BME280;46106;51.468;5.814;2023-07-20T02:46:21;101093.53;;;16.40;100.00
60244;BME280;46106;51.468;5.814;2023-07-20T02:49:06;101098.69;;;16.53;100.00
60244;BME280;46106;51.468;5.814;2023-07-20T02:51:52;101101.63;;;16.51;100.00
60244;BME280;46106;51.468;5.814;2023-07-20T02:54:38;101094.78;;;16.46;100.00
60244;BME280;46106;51.468;5.814;2023-07-20T02:57:24;101096.50;;;16.29;100.00
60244;BME280;46106;51.468;5.814;2023-07-20T03:00:10;101104.13;;;16.45;100.00
60244;BME280;46106;51.468;5.814;2023-07-20T03:02:57;101114.03;;;16.38;100.00
60244;BME280;46106;51.468;5.814;2023-07-20T03:05:42;101111.97;;;16.40;100.00
60244;BME280;46106;51.468;5.814;2023-07-20T03:08:28;101109.81;;;16.43;100.00
60244;BME280;46106;51.468;5.814;2023-07-20T03:11:14;101115.09;;;16.37;100.00
60244;BME280;46106;51.468;5.814;2023-07-20T03:14:00;101111.13;;;16.39;100.00
60244;BME280;46106;51.468;5.814;2023-07-20T03:16:46;101115.63;;;16.40;100.00
60244;BME280;46106;51.468;5.814;2023-07-20T03:19:32;101122.53;;;16.54;100.00
60244;BME280;46106;51.468;5.814;2023-07-20T03:22:18;101125.94;;;16.48;100.00
60244;BME280;46106;51.468;5.814;2023-07-20T03:25:04;101139.22;;;16.62;100.00
60244;BME280;46106;51.468;5.814;2023-07-20T03:27:50;101129.34;;;16.60;100.00
60244;BME280;46106;51.468;5.814;2023-07-20T03:30:35;101130.28;;;16.50;100.00
60244;BME280;46106;51.468;5.814;2023-07-20T03:33:26;101124.94;;;16.39;100.00
60244;BME280;46106;51.468;5.814;2023-07-20T03:36:11;101126.13;;;16.37;100.00
60244;BME280;46106;51.468;5.814;2023-07-20T03:38:57;101131.06;;;16.33;100.00
60244;BME280;46106;51.468;5.814;2023-07-20T03:41:43;101132.13;;;16.32;100.00
60244;BME280;46106;51.468;5.814;2023-07-20T03:44:29;101138.34;;;16.34;100.00
60244;BME280;46106;51.468;5.814;2023-07-20T03:47:14;101143.28;;;16.40;100.00
60244;BME280;46106;51.468;5.814;2023-07-20T03:50:00;101138.34;;;16.34;100.00
60244;BME280;46106;51.468;5.814;2023-07-20T03:52:46;101138.75;;;16.39;100.00
60244;BME280;46106;51.468;5.814;2023-07-20T03:55:32;101139.53;;;16.59;100.00
60244;BME280;46106;51.468;5.814;2023-07-20T03:58:19;101137.19;;;16.37;100.00
60244;BME280;46106;51.468;5.814;2023-07-20T04:01:05;101149.66;;;16.41;100.00
60244;BME280;46106;51.468;5.814;2023-07-20T04:03:51;101147.88;;;16.49;100.00
60244;BME280;46106;51.468;5.814;2023-07-20T04:06:37;101152.31;;;16.32;100.00
60244;BME280;46106;51.468;5.814;2023-07-20T04:09:23;101161.06;;;16.28;100.00
60244;BME280;46106;51.468;5.814;2023-07-20T04:12:09;101155.94;;;16.33;100.00
60244;BME280;46106;51.468;5.814;2023-07-20T04:14:54;101154.59;;;16.47;100.00
60244;BME280;46106;51.468;5.814;2023-07-20T04:17:40;101154.28;;;16.50;100.00
60244;BME280;46106;51.468;5.814;2023-07-20T04:20:26;101150.47;;;16.51;100.00
60244;BME280;46106;51.468;5.814;2023-07-20T04:23:12;101158.16;;;16.57;100.00
60244;BME280;46106;51.468;5.814;2023-07-20T04:25:58;101151.94;;;16.55;100.00
60244;BME280;46106;51.468;5.814;2023-07-20T04:28:43;101152.13;;;16.44;100.00
60244;BME280;46106;51.468;5.814;2023-07-20T04:31:29;101155.50;;;16.38;100.00
60244;BME280;46106;51.468;5.814;2023-07-20T04:34:17;101158.44;;;16.26;100.00
60244;BME280;46106;51.468;5.814;2023-07-20T04:37:04;101164.97;;;16.35;100.00
60244;BME280;46106;51.468;5.814;2023-07-20T04:39:50;101165.00;;;16.25;100.00
60244;BME280;46106;51.468;5.814;2023-07-20T04:42:35;101162.13;;;16.17;100.00
60244;BME280;46106;51.468;5.814;2023-07-20T04:45:21;101155.72;;;16.16;100.00
60244;BME280;46106;51.468;5.814;2023-07-20T04:48:10;101163.72;;;16.10;100.00
60244;BME280;46106;51.468;5.814;2023-07-20T04:50:56;101160.69;;;16.03;100.00
60244;BME280;46106;51.468;5.814;2023-07-20T04:53:42;101165.06;;;16.06;100.00
60244;BME280;46106;51.468;5.814;2023-07-20T04:56:28;101170.59;;;16.06;100.00
60244;BME280;46106;51.468;5.814;2023-07-20T04:59:14;101170.44;;;16.07;100.00
60244;BME280;46106;51.468;5.814;2023-07-20T05:01:59;101167.00;;;15.95;100.00
60244;BME280;46106;51.468;5.814;2023-07-20T05:04:45;101167.59;;;15.89;100.00
60244;BME280;46106;51.468;5.814;2023-07-20T05:07:31;101176.81;;;16.17;100.00
60244;BME280;46106;51.468;5.814;2023-07-20T05:10:17;101175.66;;;16.20;100.00
60244;BME280;46106;51.468;5.814;2023-07-20T05:13:03;101169.09;;;16.21;100.00
60244;BME280;46106;51.468;5.814;2023-07-20T05:15:52;101164.25;;;16.23;100.00
60244;BME280;46106;51.468;5.814;2023-07-20T05:18:38;101166.53;;;16.38;100.00
60244;BME280;46106;51.468;5.814;2023-07-20T05:21:24;101169.13;;;16.49;100.00
60244;BME280;46106;51.468;5.814;2023-07-20T05:24:09;101171.59;;;16.52;100.00
60244;BME280;46106;51.468;5.814;2023-07-20T05:26:55;101169.63;;;16.62;100.00
60244;BME280;46106;51.468;5.814;2023-07-20T05:29:45;101166.06;;;16.80;100.00
60244;BME280;46106;51.468;5.814;2023-07-20T05:32:31;101173.53;;;16.69;100.00
60244;BME280;46106;51.468;5.814;2023-07-20T05:35:18;101173.66;;;17.05;100.00
60244;BME280;46106;51.468;5.814;2023-07-20T05:38:03;101171.09;;;16.94;100.00
60244;BME280;46106;51.468;5.814;2023-07-20T05:40:50;101175.91;;;17.10;100.00
60244;BME280;46106;51.468;5.814;2023-07-20T05:43:36;101174.28;;;17.35;100.00
60244;BME280;46106;51.468;5.814;2023-07-20T05:46:22;101170.81;;;17.51;100.00
60244;BME280;46106;51.468;5.814;2023-07-20T05:49:07;101182.59;;;17.53;100.00
60244;BME280;46106;51.468;5.814;2023-07-20T05:51:55;101177.53;;;17.67;100.00
60244;BME280;46106;51.468;5.814;2023-07-20T05:54:41;101186.19;;;18.08;100.00
60244;BME280;46106;51.468;5.814;2023-07-20T05:57:27;101180.72;;;17.98;100.00
60244;BME280;46106;51.468;5.814;2023-07-20T06:00:13;101185.75;;;17.76;100.00
60244;BME280;46106;51.468;5.814;2023-07-20T06:02:58;101184.69;;;17.95;100.00
60244;BME280;46106;51.468;5.814;2023-07-20T06:05:45;101193.75;;;17.61;100.00
60244;BME280;46106;51.468;5.814;2023-07-20T06:08:31;101199.59;;;17.40;100.00
60244;BME280;46106;51.468;5.814;2023-07-20T06:11:17;101200.75;;;17.20;100.00
60244;BME280;46106;51.468;5.814;2023-07-20T06:14:02;101204.50;;;17.82;100.00
60244;BME280;46106;51.468;5.814;2023-07-20T06:16:48;101216.22;;;18.47;100.00
60244;BME280;46106;51.468;5.814;2023-07-20T06:19:34;101220.22;;;18.52;100.00
60244;BME280;46106;51.468;5.814;2023-07-20T06:22:20;101211.22;;;18.24;100.00
60244;BME280;46106;51.468;5.814;2023-07-20T06:25:06;101212.31;;;17.87;100.00
60244;BME280;46106;51.468;5.814;2023-07-20T06:27:52;101214.19;;;17.87;100.00
60244;BME280;46106;51.468;5.814;2023-07-20T06:30:38;101212.16;;;17.53;100.00
60244;BME280;46106;51.468;5.814;2023-07-20T06:33:23;101216.44;;;17.29;100.00
60244;BME280;46106;51.468;5.814;2023-07-20T06:36:09;101220.72;;;17.77;100.00
60244;BME280;46106;51.468;5.814;2023-07-20T06:38:55;101223.09;;;17.90;100.00
60244;BME280;46106;51.468;5.814;2023-07-20T06:41:41;101219.38;;;17.45;100.00
60244;BME280;46106;51.468;5.814;2023-07-20T06:44:27;101224.19;;;17.79;100.00
60244;BME280;46106;51.468;5.814;2023-07-20T06:47:13;101214.84;;;17.62;100.00
60244;BME280;46106;51.468;5.814;2023-07-20T06:49:58;101224.59;;;17.67;100.00
60244;BME280;46106;51.468;5.814;2023-07-20T06:52:44;101225.38;;;18.73;100.00
60244;BME280;46106;51.468;5.814;2023-07-20T06:55:31;101223.53;;;19.33;100.00
60244;BME280;46106;51.468;5.814;2023-07-20T06:58:17;101224.06;;;19.37;100.00
60244;BME280;46106;51.468;5.814;2023-07-20T07:01:08;101222.44;;;19.09;100.00
60244;BME280;46106;51.468;5.814;2023-07-20T07:03:54;101227.94;;;20.26;100.00
60244;BME280;46106;51.468;5.814;2023-07-20T07:06:39;101224.13;;;19.61;100.00
60244;BME280;46106;51.468;5.814;2023-07-20T07:09:25;101228.25;;;20.39;100.00
60244;BME280;46106;51.468;5.814;2023-07-20T07:12:11;101219.13;;;19.90;100.00
60244;BME280;46106;51.468;5.814;2023-07-20T07:14:56;101221.66;;;19.50;100.00
60244;BME280;46106;51.468;5.814;2023-07-20T07:17:42;101231.31;;;19.21;100.00
60244;BME280;46106;51.468;5.814;2023-07-20T07:20:29;101223.97;;;18.96;100.00
60244;BME280;46106;51.468;5.814;2023-07-20T07:23:14;101227.91;;;18.59;100.00
60244;BME280;46106;51.468;5.814;2023-07-20T07:26:00;101230.34;;;18.62;100.00
60244;BME280;46106;51.468;5.814;2023-07-20T07:28:46;101231.50;;;18.51;100.00
60244;BME280;46106;51.468;5.814;2023-07-20T07:31:34;101234.84;;;19.40;100.00
60244;BME280;46106;51.468;5.814;2023-07-20T07:34:19;101234.88;;;20.47;100.00
60244;BME280;46106;51.468;5.814;2023-07-20T07:37:05;101230.88;;;21.05;100.00
60244;BME280;46106;51.468;5.814;2023-07-20T07:39:51;101241.38;;;20.87;100.00
60244;BME280;46106;51.468;5.814;2023-07-20T07:42:37;101238.31;;;20.65;100.00
60244;BME280;46106;51.468;5.814;2023-07-20T07:45:22;101235.63;;;19.99;100.00
60244;BME280;46106;51.468;5.814;2023-07-20T07:48:08;101237.50;;;19.66;100.00
60244;BME280;46106;51.468;5.814;2023-07-20T07:50:56;101234.22;;;19.79;100.00
60244;BME280;46106;51.468;5.814;2023-07-20T07:53:42;101245.06;;;19.39;100.00
60244;BME280;46106;51.468;5.814;2023-07-20T07:56:29;101239.72;;;19.62;100.00
60244;BME280;46106;51.468;5.814;2023-07-20T07:59:15;101249.47;;;19.75;100.00
60244;BME280;46106;51.468;5.814;2023-07-20T08:02:00;101254.56;;;20.12;100.00
60244;BME280;46106;51.468;5.814;2023-07-20T08:04:46;101260.97;;;20.29;100.00
60244;BME280;46106;51.468;5.814;2023-07-20T08:07:32;101259.88;;;21.19;100.00
60244;BME280;46106;51.468;5.814;2023-07-20T08:10:18;101267.69;;;20.84;100.00
60244;BME280;46106;51.468;5.814;2023-07-20T08:13:04;101268.75;;;22.24;91.25
60244;BME280;46106;51.468;5.814;2023-07-20T08:15:50;101268.13;;;22.36;90.14
60244;BME280;46106;51.468;5.814;2023-07-20T08:18:39;101260.28;;;21.94;93.21
60244;BME280;46106;51.468;5.814;2023-07-20T08:21:25;101260.09;;;22.56;91.36
60244;BME280;46106;51.468;5.814;2023-07-20T08:24:11;101261.78;;;21.58;98.52
60244;BME280;46106;51.468;5.814;2023-07-20T08:26:57;101257.41;;;20.85;99.35
60244;BME280;46106;51.468;5.814;2023-07-20T08:29:43;101256.78;;;20.66;100.00
60244;BME280;46106;51.468;5.814;2023-07-20T08:32:28;101261.28;;;20.51;100.00
60244;BME280;46106;51.468;5.814;2023-07-20T08:35:14;101265.47;;;20.47;100.00
60244;BME280;46106;51.468;5.814;2023-07-20T08:38:01;101265.84;;;20.19;100.00
60244;BME280;46106;51.468;5.814;2023-07-20T08:40:47;101262.50;;;21.13;97.30
60244;BME280;46106;51.468;5.814;2023-07-20T08:43:33;101263.00;;;21.79;95.08
60244;BME280;46106;51.468;5.814;2023-07-20T08:46:19;101261.22;;;22.47;89.53
60244;BME280;46106;51.468;5.814;2023-07-20T08:49:06;101269.06;;;22.82;79.77
60244;BME280;46106;51.468;5.814;2023-07-20T08:51:52;101273.09;;;20.61;90.56
60244;BME280;46106;51.468;5.814;2023-07-20T08:54:39;101271.56;;;22.62;79.76
60244;BME280;46106;51.468;5.814;2023-07-20T08:57:25;101267.41;;;22.87;76.72
60244;BME280;46106;51.468;5.814;2023-07-20T09:00:13;101257.63;;;21.77;82.78
60244;BME280;46106;51.468;5.814;2023-07-20T09:03:01;101258.53;;;22.99;78.06
60244;BME280;46106;51.468;5.814;2023-07-20T09:05:48;101258.84;;;22.74;76.33
60244;BME280;46106;51.468;5.814;2023-07-20T09:08:38;101257.13;;;23.18;74.25
60244;BME280;46106;51.468;5.814;2023-07-20T09:11:24;101246.91;;;22.80;74.31
60244;BME280;46106;51.468;5.814;2023-07-20T09:14:09;101244.81;;;23.12;74.31
60244;BME280;46106;51.468;5.814;2023-07-20T09:16:56;101241.88;;;23.93;72.13
60244;BME280;46106;51.468;5.814;2023-07-20T09:19:48;101246.53;;;24.08;72.69
60244;BME280;46106;51.468;5.814;2023-07-20T09:22:34;101245.94;;;24.40;68.93
60244;BME280;46106;51.468;5.814;2023-07-20T09:25:20;101248.69;;;24.06;67.12
60244;BME280;46106;51.468;5.814;2023-07-20T09:28:06;101245.44;;;24.09;66.53
60244;BME280;46106;51.468;5.814;2023-07-20T09:30:54;101237.94;;;23.29;69.86
60244;BME280;46106;51.468;5.814;2023-07-20T09:33:39;101243.72;;;22.53;77.53
60244;BME280;46106;51.468;5.814;2023-07-20T09:36:28;101239.00;;;22.39;79.29
60244;BME280;46106;51.468;5.814;2023-07-20T09:39:14;101240.25;;;22.13;76.56
60244;BME280;46106;51.468;5.814;2023-07-20T09:42:00;101246.22;;;21.87;78.39
60244;BME280;46106;51.468;5.814;2023-07-20T09:44:50;101239.94;;;20.99;80.52
60244;BME280;46106;51.468;5.814;2023-07-20T09:47:37;101240.25;;;22.13;75.73
60244;BME280;46106;51.468;5.814;2023-07-20T09:50:23;101240.91;;;23.64;71.05
60244;BME280;46106;51.468;5.814;2023-07-20T09:53:11;101228.78;;;22.08;76.24
60244;BME280;46106;51.468;5.814;2023-07-20T09:56:02;101233.34;;;23.80;67.15
60244;BME280;46106;51.468;5.814;2023-07-20T09:58:48;101238.66;;;24.46;65.14
60244;BME280;46106;51.468;5.814;2023-07-20T10:01:34;101232.63;;;23.93;66.84
60244;BME280;46106;51.468;5.814;2023-07-20T10:04:21;101228.03;;;23.85;67.92
60244;BME280;46106;51.468;5.814;2023-07-20T10:07:10;101224.88;;;23.52;64.77
60244;BME280;46106;51.468;5.814;2023-07-20T10:09:59;101232.28;;;22.93;70.62
60244;BME280;46106;51.468;5.814;2023-07-20T10:12:48;101221.00;;;23.53;68.73
60244;BME280;46106;51.468;5.814;2023-07-20T10:15:37;101223.91;;;22.93;70.49
60244;BME280;46106;51.468;5.814;2023-07-20T10:18:28;101235.47;;;22.60;68.41
60244;BME280;46106;51.468;5.814;2023-07-20T10:21:17;101221.75;;;21.97;71.44
60244;BME280;46106;51.468;5.814;2023-07-20T10:24:04;101220.94;;;22.65;69.44
60244;BME280;46106;51.468;5.814;2023-07-20T10:26:50;101221.16;;;22.25;68.20
60244;BME280;46106;51.468;5.814;2023-07-20T10:29:37;101215.28;;;23.24;69.89
60244;BME280;46106;51.468;5.814;2023-07-20T10:32:23;101218.50;;;22.76;73.01
60244;BME280;46106;51.468;5.814;2023-07-20T10:35:13;101213.44;;;22.27;75.57
60244;BME280;46106;51.468;5.814;2023-07-20T10:38:01;101220.59;;;22.45;75.72
60244;BME280;46106;51.468;5.814;2023-07-20T10:40:56;101208.59;;;22.06;78.31
60244;BME280;46106;51.468;5.814;2023-07-20T10:43:43;101203.84;;;22.30;78.73
60244;BME280;46106;51.468;5.814;2023-07-20T10:49:23;101203.84;;;21.92;83.77
60244;BME280;46106;51.468;5.814;2023-07-20T10:52:12;101213.91;;;21.78;83.02
60244;BME280;46106;51.468;5.814;2023-07-20T10:55:10;101205.47;;;21.86;80.06
60244;BME280;46106;51.468;5.814;2023-07-20T10:58:22;101203.84;;;22.45;79.60
60244;BME280;46106;51.468;5.814;2023-07-20T11:01:15;101200.31;;;22.66;74.67
60244;BME280;46106;51.468;5.814;2023-07-20T11:04:08;101202.19;;;23.61;71.73
60244;BME280;46106;51.468;5.814;2023-07-20T11:06:57;101201.59;;;23.29;71.21
60244;BME280;46106;51.468;5.814;2023-07-20T11:09:43;101194.06;;;23.88;67.81
60244;BME280;46106;51.468;5.814;2023-07-20T11:12:28;101191.94;;;23.90;67.05
60244;BME280;46106;51.468;5.814;2023-07-20T11:15:15;101197.81;;;24.24;64.91
60244;BME280;46106;51.468;5.814;2023-07-20T11:18:13;101194.63;;;24.05;64.05
60244;BME280;46106;51.468;5.814;2023-07-20T11:20:59;101188.13;;;24.89;60.02
60244;BME280;46106;51.468;5.814;2023-07-20T11:23:47;101176.84;;;24.48;62.14
60244;BME280;46106;51.468;5.814;2023-07-20T11:26:43;101185.00;;;25.12;59.37
60244;BME280;46106;51.468;5.814;2023-07-20T11:29:29;101181.84;;;24.87;60.42
60244;BME280;46106;51.468;5.814;2023-07-20T11:32:22;101181.38;;;24.77;58.87
60244;BME280;46106;51.468;5.814;2023-07-20T11:35:12;101174.75;;;23.72;62.16
60244;BME280;46106;51.468;5.814;2023-07-20T11:37:58;101173.97;;;24.34;60.71
60244;BME280;46106;51.468;5.814;2023-07-20T11:40:45;101167.84;;;24.17;60.20
60244;BME280;46106;51.468;5.814;2023-07-20T11:43:31;101163.22;;;24.38;61.14
60244;BME280;46106;51.468;5.814;2023-07-20T11:46:17;101165.66;;;23.84;61.84
60244;BME280;46106;51.468;5.814;2023-07-20T11:49:02;101164.88;;;23.76;62.23
60244;BME280;46106;51.468;5.814;2023-07-20T11:51:49;101157.88;;;24.43;59.53
60244;BME280;46106;51.468;5.814;2023-07-20T11:54:35;101151.56;;;24.63;60.75
60244;BME280;46106;51.468;5.814;2023-07-20T11:57:21;101149.56;;;24.21;59.71
60244;BME280;46106;51.468;5.814;2023-07-20T12:00:07;101157.41;;;23.40;61.44
60244;BME280;46106;51.468;5.814;2023-07-20T12:02:57;101149.28;;;23.23;61.97
60244;BME280;46106;51.468;5.814;2023-07-20T12:05:42;101146.06;;;23.84;60.19
60244;BME280;46106;51.468;5.814;2023-07-20T12:08:29;101155.28;;;23.05;62.89
60244;BME280;46106;51.468;5.814;2023-07-20T12:11:39;101151.13;;;22.80;65.07
60244;BME280;46106;51.468;5.814;2023-07-20T12:14:25;101162.13;;;22.51;65.21
60244;BME280;46106;51.468;5.814;2023-07-20T12:17:11;101158.44;;;22.51;64.66
60244;BME280;46106;51.468;5.814;2023-07-20T12:19:57;101163.09;;;22.44;66.47
60244;BME280;46106;51.468;5.814;2023-07-20T12:22:44;101153.22;;;22.18;66.12
60244;BME280;46106;51.468;5.814;2023-07-20T12:25:40;101157.59;;;22.50;67.52
60244;BME280;46106;51.468;5.814;2023-07-20T12:28:26;101152.56;;;22.61;70.01
60244;BME280;46106;51.468;5.814;2023-07-20T12:31:12;101151.06;;;22.58;68.99
60244;BME280;46106;51.468;5.814;2023-07-20T12:33:58;101147.78;;;23.42;65.46
60244;BME280;46106;51.468;5.814;2023-07-20T12:36:44;101151.84;;;23.61;63.33
60244;BME280;46106;51.468;5.814;2023-07-20T12:39:30;101157.59;;;23.53;64.73
60244;BME280;46106;51.468;5.814;2023-07-20T12:42:16;101155.31;;;23.20;66.30
60244;BME280;46106;51.468;5.814;2023-07-20T12:45:02;101144.59;;;23.45;63.41
60244;BME280;46106;51.468;5.814;2023-07-20T12:47:48;101147.56;;;23.87;61.08
60244;BME280;46106;51.468;5.814;2023-07-20T12:50:34;101140.47;;;23.63;59.58
60244;BME280;46106;51.468;5.814;2023-07-20T12:53:20;101144.66;;;23.52;63.26
60244;BME280;46106;51.468;5.814;2023-07-20T12:56:06;101134.78;;;23.35;62.16
60244;BME280;46106;51.468;5.814;2023-07-20T12:58:52;101143.13;;;23.93;60.39
60244;BME280;46106;51.468;5.814;2023-07-20T13:01:37;101134.53;;;23.94;60.95
60244;BME280;46106;51.468;5.814;2023-07-20T13:04:23;101138.47;;;23.57;62.73
60244;BME280;46106;51.468;5.814;2023-07-20T13:07:10;101130.34;;;23.19;62.39
60244;BME280;46106;51.468;5.814;2023-07-20T13:09:56;101134.47;;;22.71;62.12
60244;BME280;46106;51.468;5.814;2023-07-20T13:12:42;101135.72;;;22.69;63.54
60244;BME280;46106;51.468;5.814;2023-07-20T13:15:32;101125.31;;;22.63;64.54
60244;BME280;46106;51.468;5.814;2023-07-20T13:18:18;101128.47;;;22.89;65.54
60244;BME280;46106;51.468;5.814;2023-07-20T13:21:04;101128.34;;;23.12;63.69
60244;BME280;46106;51.468;5.814;2023-07-20T13:23:49;101126.28;;;22.70;64.02
60244;BME280;46106;51.468;5.814;2023-07-20T13:26:35;101115.50;;;23.40;62.21
60244;BME280;46106;51.468;5.814;2023-07-20T13:29:21;101120.16;;;23.11;63.31
60244;BME280;46106;51.468;5.814;2023-07-20T13:32:07;101127.28;;;22.99;62.82
60244;BME280;46106;51.468;5.814;2023-07-20T13:34:53;101119.63;;;22.71;64.25
60244;BME280;46106;51.468;5.814;2023-07-20T13:37:39;101119.16;;;22.67;63.37
60244;BME280;46106;51.468;5.814;2023-07-20T13:40:24;101122.72;;;22.61;64.20
60244;BME280;46106;51.468;5.814;2023-07-20T13:43:10;101114.19;;;22.48;64.95
60244;BME280;46106;51.468;5.814;2023-07-20T13:45:56;101122.63;;;22.69;66.32
60244;BME280;46106;51.468;5.814;2023-07-20T13:48:42;101115.97;;;22.70;66.88
60244;BME280;46106;51.468;5.814;2023-07-20T13:51:27;101120.03;;;22.83;65.34
60244;BME280;46106;51.468;5.814;2023-07-20T13:54:13;101112.53;;;23.05;65.16
60244;BME280;46106;51.468;5.814;2023-07-20T13:56:59;101106.91;;;23.20;63.44
60244;BME280;46106;51.468;5.814;2023-07-20T13:59:45;101101.34;;;23.20;61.74
60244;BME280;46106;51.468;5.814;2023-07-20T14:02:32;101098.28;;;23.36;63.77
60244;BME280;46106;51.468;5.814;2023-07-20T14:05:17;101097.09;;;23.45;61.57
60244;BME280;46106;51.468;5.814;2023-07-20T14:08:04;101095.88;;;23.11;61.88
60244;BME280;46106;51.468;5.814;2023-07-20T14:10:50;101096.06;;;23.31;62.16
60244;BME280;46106;51.468;5.814;2023-07-20T14:13:36;101081.31;;;23.38;63.13
60244;BME280;46106;51.468;5.814;2023-07-20T14:16:22;101084.03;;;23.31;63.99
60244;BME280;46106;51.468;5.814;2023-07-20T14:19:08;101079.66;;;23.43;62.05
60244;BME280;46106;51.468;5.814;2023-07-20T14:21:53;101078.63;;;23.51;62.40
60244;BME280;46106;51.468;5.814;2023-07-20T14:24:43;101073.56;;;23.40;61.30
60244;BME280;46106;51.468;5.814;2023-07-20T14:27:29;101072.00;;;23.09;62.65
60244;BME280;46106;51.468;5.814;2023-07-20T14:30:15;101074.47;;;23.19;63.23
60244;BME280;46106;51.468;5.814;2023-07-20T14:33:00;101071.63;;;23.12;63.08
60244;BME280;46106;51.468;5.814;2023-07-20T14:35:46;101064.78;;;23.43;61.75
60244;BME280;46106;51.468;5.814;2023-07-20T14:38:34;101071.72;;;23.47;61.49